| time (UTC) | temp F | wind direction | speed MPH | gust MPH | rain 1hr in | rain 24hr in | rain mn in | humidity % | barometer mb |
| 20260906111511 | 73 | 71 | 0.0 | 0.0 | 0.00 | 0.00 | 0.00 | 92 | 987.5 |
| 20260906110010 | 73 | 71 | 0.0 | 0.0 | 0.00 | 0.00 | 0.00 | 92 | 987.3 |
| 20260906104510 | 73 | 71 | 0.0 | 0.0 | 0.00 | 0.00 | 0.00 | 91 | 987.2 |
| 20260906103010 | 74 | 88 | 0.0 | 0.0 | 0.00 | 0.00 | 0.00 | 91 | 987.1 |
| 20260906101505 | 74 | 88 | 0.0 | 0.0 | 0.00 | 0.00 | 0.00 | 91 | 987.2 |
| 20260906100005 | 74 | 88 | 0.0 | 0.0 | 0.00 | 0.00 | 0.00 | 91 | 987.0 |
| 20260906094501 | 74 | 88 | 0.0 | 0.0 | 0.00 | 0.00 | 0.00 | 91 | 986.9 |
| 20260906093059 | 74 | 88 | 0.0 | 0.0 | 0.00 | 0.00 | 0.00 | 91 | 986.8 |
| 20260906091552 | 74 | 88 | 0.0 | 0.0 | 0.00 | 0.00 | 0.00 | 91 | 987.1 |
| 20260906090048 | 74 | 109 | 0.0 | 0.0 | 0.00 | 0.00 | 0.00 | 91 | 987.2 |
| 20260906084552 | 74 | 109 | 0.0 | 0.0 | 0.00 | 0.00 | 0.00 | 91 | 987.6 |
| 20260906083043 | 74 | 94 | 0.0 | 3.0 | 0.00 | 0.00 | 0.00 | 91 | 987.9 |
| 20260906081543 | 74 | 53 | 0.0 | 4.0 | 0.00 | 0.00 | 0.00 | 91 | 988.1 |
| 20260906080052 | 74 | 71 | 0.0 | 4.0 | 0.00 | 0.00 | 0.00 | 93 | 988.1 |
| 20260906074543 | 74 | 102 | 0.0 | 0.0 | 0.00 | 0.00 | 0.00 | 93 | 987.9 |
| 20260906073040 | 73 | 153 | 0.0 | 0.0 | 0.00 | 0.00 | 0.00 | 93 | 987.5 |
| 20260906071545 | 73 | 153 | 0.0 | 0.0 | 0.00 | 0.00 | 0.00 | 93 | 987.1 |
| 20260906070045 | 73 | 138 | 0.0 | 6.0 | 0.00 | 0.00 | 0.00 | 93 | 987.1 |
| 20260906064544 | 73 | 351 | 0.0 | 0.0 | 0.00 | 0.00 | 0.00 | 93 | 987.4 |
| 20260906063044 | 73 | 76 | 0.0 | 0.0 | 0.00 | 0.00 | 0.00 | 93 | 987.4 |
| 20260906061540 | 73 | 76 | 0.0 | 0.0 | 0.00 | 0.00 | 0.00 | 93 | 987.5 |
| 20260906060042 | 73 | 76 | 0.0 | 0.0 | 0.00 | 0.00 | 0.00 | 93 | 987.3 |
| 20260906054537 | 73 | 103 | 0.0 | 0.0 | 0.00 | 0.00 | 0.00 | 92 | 987.2 |
| 20260906053036 | 73 | 103 | 0.0 | 0.0 | 0.00 | 0.00 | 0.00 | 92 | 987.6 |
| 20260906051542 | 73 | 103 | 0.0 | 0.0 | 0.00 | 0.00 | 0.00 | 92 | 987.6 |
| 20260906050038 | 74 | 78 | 0.0 | 0.0 | 0.00 | 0.00 | 0.00 | 92 | 987.4 |
| 20260906044538 | 74 | 78 | 0.0 | 0.0 | 0.00 | 0.00 | 0.00 | 92 | 987.5 |
| 20260906043038 | 74 | 78 | 0.0 | 0.0 | 0.00 | 0.00 | 0.00 | 91 | 987.8 |
| 20260906041544 | 74 | 78 | 0.0 | 0.0 | 0.00 | 0.00 | 0.00 | 91 | 987.9 |
| 20260906040044 | 74 | 78 | 0.0 | 0.0 | 0.00 | 0.00 | 0.00 | 91 | 988.0 |
| 20260906034536 | 75 | 78 | 0.0 | 0.0 | 0.00 | 0.00 | 0.00 | 90 | 988.0 |
| 20260906033035 | 75 | 78 | 0.0 | 0.0 | 0.00 | 0.00 | 0.00 | 89 | 987.9 |
| 20260906031536 | 75 | 78 | 0.0 | 0.0 | 0.00 | 0.00 | 0.00 | 89 | 988.0 |
| 20260906030037 | 75 | 78 | 0.0 | 0.0 | 0.00 | 0.00 | 0.00 | 90 | 988.0 |
| 20260906024536 | 75 | 78 | 0.0 | 0.0 | 0.00 | 0.00 | 0.00 | 89 | 987.9 |
| 20260906023043 | 76 | 78 | 0.0 | 0.0 | 0.00 | 0.00 | 0.00 | 87 | 987.3 |
| 20260906021539 | 76 | 78 | 0.0 | 0.0 | 0.00 | 0.00 | 0.00 | 87 | 987.2 |
| 20260906020038 | 77 | 78 | 0.0 | 0.0 | 0.00 | 0.00 | 0.00 | 86 | 987.2 |
| 20260906014544 | 77 | 78 | 0.0 | 0.0 | 0.00 | 0.00 | 0.00 | 87 | 987.1 |
| 20260906013036 | 78 | 78 | 0.0 | 0.0 | 0.00 | 0.00 | 0.00 | 85 | 986.9 |
| 20260906011530 | 78 | 78 | 0.0 | 0.0 | 0.00 | 0.00 | 0.00 | 84 | 987.0 |
| 20260906010030 | 79 | 81 | 0.0 | 0.0 | 0.00 | 0.00 | 0.00 | 83 | 986.7 |
| 20260906004531 | 80 | 81 | 0.0 | 1.0 | 0.00 | 0.00 | 0.00 | 81 | 986.7 |
| 20260906003028 | 80 | 78 | 2.0 | 3.0 | 0.00 | 0.00 | 0.00 | 81 | 986.7 |
| 20260906001522 | 81 | 38 | 0.0 | 2.0 | 0.00 | 0.00 | 0.00 | 79 | 986.9 |
| 20260906000021 | 82 | 110 | 0.0 | 3.0 | 0.00 | 0.00 | 0.00 | 77 | 986.7 |
| 20260905234519 | 82 | 71 | 1.0 | 3.0 | 0.00 | 0.00 | 0.00 | 77 | 986.9 |
| 20260905233019 | 84 | 105 | 0.0 | 2.0 | 0.00 | 0.00 | 0.00 | 75 | 986.9 |
| 20260905231521 | 84 | 173 | 0.0 | 0.0 | 0.00 | 0.00 | 0.00 | 73 | 986.7 |
| 20260905230021 | 84 | 173 | 1.0 | 2.0 | 0.00 | 0.00 | 0.00 | 72 | 986.5 |
| 20260905224521 | 84 | 69 | 1.0 | 4.0 | 0.00 | 0.00 | 0.00 | 72 | 986.4 |
| 20260905223018 | 85 | 40 | 0.0 | 1.0 | 0.00 | 0.00 | 0.00 | 71 | 986.4 |
| 20260905221533 | 86 | 40 | 0.0 | 1.0 | 0.00 | 0.00 | 0.00 | 70 | 986.7 |
| 20260905220022 | 86 | 40 | 0.0 | 3.0 | 0.00 | 0.00 | 0.00 | 69 | 986.7 |
| 20260905214520 | 87 | 188 | 0.0 | 1.0 | 0.00 | 0.00 | 0.00 | 66 | 986.7 |
| 20260905213024 | 88 | 304 | 0.0 | 4.0 | 0.00 | 0.00 | 0.00 | 65 | 987.0 |
| 20260905211526 | 88 | 63 | 0.0 | 4.0 | 0.00 | 0.00 | 0.00 | 65 | 987.2 |
| 20260905210029 | 87 | 56 | 0.0 | 4.0 | 0.00 | 0.00 | 0.00 | 65 | 987.2 |
| 20260905204523 | 87 | 259 | 2.0 | 5.0 | 0.00 | 0.00 | 0.00 | 65 | 987.6 |
| 20260905203021 | 86 | 115 | 2.0 | 6.0 | 0.00 | 0.00 | 0.00 | 67 | 987.6 |
| 20260905201519 | 86 | 32 | 1.0 | 8.0 | 0.00 | 0.00 | 0.00 | 67 | 987.6 |
| 20260905200012 | 85 | 59 | 3.0 | 11.0 | 0.00 | 0.00 | 0.00 | 63 | 987.3 |
| 20260905194511 | 87 | 292 | 2.0 | 16.0 | 0.00 | 0.00 | 0.00 | 60 | 987.5 |
| 20260905193013 | 95 | 61 | 10.0 | 21.0 | 0.00 | 0.00 | 0.00 | 54 | 988.3 |
| 20260905191508 | 101 | 286 | 1.0 | 8.0 | 0.00 | 0.00 | 0.00 | 44 | 987.4 |
| 20260905190004 | 101 | 20 | 2.0 | 6.0 | 0.00 | 0.00 | 0.00 | 46 | 987.2 |
| 20260905184620 | 101 | 360 | 2.0 | 7.0 | 0.00 | 0.00 | 0.00 | 44 | 987.5 |
| 20260905183057 | 98 | 298 | 1.0 | 5.0 | 0.00 | 0.00 | 0.00 | 48 | 987.5 |
| 20260905181558 | 98 | 63 | 1.0 | 6.0 | 0.00 | 0.00 | 0.00 | 50 | 987.6 |
| 20260905180056 | 98 | 333 | 2.0 | 9.0 | 0.00 | 0.00 | 0.00 | 50 | 987.9 |
| 20260905174558 | 98 | 115 | 2.0 | 6.0 | 0.00 | 0.00 | 0.00 | 48 | 988.0 |
| 20260905173051 | 96 | 232 | 2.0 | 6.0 | 0.00 | 0.00 | 0.00 | 52 | 988.0 |
| 20260905171553 | 96 | 107 | 1.0 | 6.0 | 0.00 | 0.00 | 0.00 | 50 | 988.3 |
| 20260905170049 | 96 | 268 | 2.0 | 8.0 | 0.00 | 0.00 | 0.00 | 54 | 988.5 |
| 20260905164549 | 95 | 274 | 2.0 | 6.0 | 0.00 | 0.00 | 0.00 | 56 | 988.5 |
| 20260905163041 | 95 | 165 | 2.0 | 5.0 | 0.00 | 0.00 | 0.00 | 54 | 988.8 |
| 20260905161539 | 94 | 196 | 1.0 | 8.0 | 0.00 | 0.00 | 0.00 | 55 | 989.0 |
| 20260905160035 | 92 | 355 | 1.0 | 7.0 | 0.00 | 0.00 | 0.00 | 62 | 989.0 |
| 20260905154531 | 91 | 263 | 2.0 | 4.0 | 0.00 | 0.00 | 0.00 | 64 | 989.1 |
| 20260905153028 | 89 | 305 | 0.0 | 3.0 | 0.00 | 0.00 | 0.00 | 73 | 989.2 |
| 20260905151525 | 87 | 355 | 1.0 | 4.0 | 0.00 | 0.00 | 0.00 | 75 | 989.3 |
| 20260905150020 | 86 | 63 | 1.0 | 2.0 | 0.00 | 0.00 | 0.00 | 82 | 989.5 |
| 20260905144516 | 84 | 307 | 0.0 | 3.0 | 0.00 | 0.00 | 0.00 | 83 | 989.6 |
| 20260905143019 | 83 | 34 | 0.0 | 1.0 | 0.00 | 0.00 | 0.00 | 82 | 989.7 |
| 20260905141509 | 81 | 30 | 0.0 | 0.0 | 0.00 | 0.00 | 0.00 | 87 | 989.8 |
| 20260905140005 | 79 | 15 | 0.0 | 0.0 | 0.00 | 0.00 | 0.00 | 93 | 989.8 |
| 20260905134502 | 78 | 21 | 0.0 | 0.0 | 0.00 | 0.00 | 0.00 | 94 | 989.9 |
| 20260905133058 | 77 | 21 | 0.0 | 0.0 | 0.00 | 0.00 | 0.00 | 96 | 990.1 |
| 20260905131508 | 76 | 76 | 0.0 | 0.0 | 0.00 | 0.00 | 0.00 | 96 | 990.2 |
| 20260905130004 | 75 | 76 | 0.0 | 0.0 | 0.00 | 0.00 | 0.00 | 96 | 990.2 |
| 20260905124502 | 74 | 76 | 0.0 | 0.0 | 0.00 | 0.00 | 0.00 | 95 | 990.1 |
| 20260905123109 | 74 | 76 | 0.0 | 0.0 | 0.00 | 0.00 | 0.00 | 95 | 990.0 |
| 20260905121551 | 74 | 76 | 0.0 | 0.0 | 0.00 | 0.00 | 0.00 | 95 | 989.9 |
| 20260905120049 | 74 | 76 | 0.0 | 0.0 | 0.00 | 0.00 | 0.00 | 95 | 989.8 |
| 20260905114545 | 74 | 80 | 0.0 | 0.0 | 0.00 | 0.00 | 0.00 | 95 | 989.7 |
| 20260905113042 | 73 | 80 | 0.0 | 0.0 | 0.00 | 0.00 | 0.00 | 94 | 989.6 |